Wilmington, OH

9:48 AM EDT on June 03, 2015 (GMT -0400)
Little House On The Prairie | | Change Station
CLOSE
Current Station
Personal Weather Station
Location: Wilmington, OH
Elevation: 1043 ft
Nearby Weather Stations

Elev 1043 ft 39.45 °N, 83.82 °W | Updated 8 seconds ago

Overcast
Overcast
63.7 °F
Feels Like 63.7 °F
N
0.0
Wind Variable Wind from SE
Gusts 0.0 mph

Today
High -- | Low -- °F
--% Chance of Precip.
Yesterday
High -- | Low -- °F
Precip. -- in
6:09 AM 8:57 PM
Full, 99% visible
Pressure 30.11 in
Visibility 7.0 miles
Clouds Mostly Cloudy 1500 ft
Mostly Cloudy 2000 ft
Overcast 3500 ft
Dew Point 59 °F
Humidity 86%
Rainfall 0.00 in
Snow Depth Not available.
UV 1 out of 12
Pollen 7.10 out of 12
Air Quality Not available.
Flu Activity Sporadic
METAR KILN 031254Z AUTO 06003KT 7SM BKN015 BKN020 OVC035 16/12 A3010 RMK AO2 SLP195 T01560122

More Conditions Fewer Conditions

Pressure 30.11 in
Visibility 7.0 miles
Clouds Mostly Cloudy 1500 ft
Mostly Cloudy 2000 ft
Overcast 3500 ft
Dew Point 59 °F
Humidity 86%
Rainfall 0.00 in
Snow Depth Not available.
UV 1 out of 12
Pollen 7.10 out of 12
Air Quality Not available.
Flu Activity Sporadic
METAR KILN 031254Z AUTO 06003KT 7SM BKN015 BKN020 OVC035 16/12 A3010 RMK AO2 SLP195 T01560122

More Conditions Fewer Conditions

10-Day Weather Forecast

×

Almanac

Astronomy

Jun. 03, 2015 Rise Set
Actual Time
Civil Twilight
Nautical Twilight
Astronomical Twilight
Moon
Length of Visible Light
Length of Day
Tomorrow will be .
, % of the Moon is Illuminated

Today's Extremes

State Highs State Lows

Community

WunderPhotos

Upload Photos

1,826,225 photos uploaded!

WunderBlogs® & News

Nearby

Air Quality

  Air Quality AQ Index Pollutant
Not available.

Snow Depth

Station Depth Elevation

Earthquake Activity

City Distance Mag. Time & Date
Minimum magnitude displayed is 2.5.

Coastal Water Temperatures

Place Temperature

Stations

Nearby Weather Stations

Station Location Temp. Windchill Dew Point Humidity Wind Precip. Elev Updated Type